createdAt,value
2018-03-04T00:01:16.354Z,5.19
2018-03-04T00:03:53.509Z,5.04
2018-03-04T00:06:25.853Z,5.04
2018-03-04T00:08:57.124Z,4.87
2018-03-04T00:11:28.145Z,5.04
2018-03-04T00:13:59.296Z,4.86
2018-03-04T00:16:31.316Z,4.88
2018-03-04T00:19:02.276Z,5.18
2018-03-04T00:21:33.547Z,5.11
2018-03-04T00:24:05.710Z,5.07
2018-03-04T00:26:37.744Z,4.92
2018-03-04T00:29:18.483Z,5.08
2018-03-04T00:32:14.601Z,5.11
2018-03-04T00:34:46.890Z,5.14
2018-03-04T00:37:18.783Z,4.85
2018-03-04T00:39:50.782Z,5.07
2018-03-04T00:42:25.770Z,5.10
2018-03-04T00:44:56.700Z,4.91
2018-03-04T00:47:28.327Z,5.08
2018-03-04T00:49:59.790Z,5.12
2018-03-04T00:52:32.277Z,4.83
2018-03-04T00:55:11.714Z,5.13
2018-03-04T00:57:43.049Z,5.23
2018-03-04T01:00:18.915Z,5.06
2018-03-04T01:02:51.057Z,5.23
2018-03-04T01:05:28.817Z,5.33
2018-03-04T01:08:23.075Z,5.13
2018-03-04T01:10:57.634Z,5.25
2018-03-04T01:13:29.156Z,5.23
2018-03-04T01:16:00.657Z,5.07
2018-03-04T01:18:32.192Z,5.22
2018-03-04T01:21:03.484Z,5.19
2018-03-04T01:23:34.832Z,5.25
2018-03-04T01:26:14.161Z,5.09
2018-03-04T01:28:47.074Z,5.09
2018-03-04T01:31:19.627Z,5.22
2018-03-04T01:33:51.117Z,5.20
2018-03-04T01:36:22.780Z,5.27
2018-03-04T01:38:54.352Z,5.19
2018-03-04T01:41:26.309Z,5.12
2018-03-04T01:43:59.078Z,5.15
2018-03-04T01:46:32.174Z,5.18
2018-03-04T01:49:04.213Z,5.16
2018-03-04T01:51:44.842Z,5.19
2018-03-04T01:54:21.661Z,5.14
2018-03-04T01:59:51.385Z,5.23
2018-03-04T02:02:26.184Z,5.19
2018-03-04T02:05:03.010Z,5.20
2018-03-04T02:07:41.834Z,5.23
2018-03-04T02:10:17.535Z,5.26
2018-03-04T02:12:59.198Z,5.25
2018-03-04T02:15:31.810Z,5.28
2018-03-04T02:18:04.840Z,5.19
2018-03-04T02:20:36.391Z,5.24
2018-03-04T02:23:08.448Z,5.31
2018-03-04T02:25:40.044Z,5.34
2018-03-04T02:28:23.452Z,5.35
2018-03-04T02:31:10.171Z,5.33
2018-03-04T02:33:56.271Z,5.30
2018-03-04T02:36:38.562Z,5.31
2018-03-04T02:39:11.015Z,5.38
2018-03-04T02:41:48.723Z,5.38
2018-03-04T02:44:20.582Z,5.42
2018-03-04T02:46:53.485Z,5.31
2018-03-04T02:49:27.489Z,5.24
2018-03-04T02:52:00.138Z,5.25
2018-03-04T02:57:35.408Z,5.20
2018-03-04T03:00:16.735Z,5.29
2018-03-04T03:02:51.429Z,5.18
2018-03-04T03:05:23.912Z,5.35
2018-03-04T03:07:55.507Z,5.35
2018-03-04T03:10:30.393Z,5.34
2018-03-04T03:13:02.871Z,5.47
2018-03-04T03:15:35.556Z,5.35
2018-03-04T03:18:08.648Z,5.43
2018-03-04T03:20:41.477Z,5.44
2018-03-04T03:23:12.753Z,5.29
2018-03-04T03:25:44.827Z,5.32
2018-03-04T03:28:16.111Z,5.39
2018-03-04T03:30:47.617Z,5.49
2018-03-04T03:33:19.619Z,5.48
2018-03-04T03:35:51.158Z,5.58
2018-03-04T03:38:23.615Z,5.51
2018-03-04T03:44:11.542Z,5.31
2018-03-04T03:46:51.190Z,5.38
2018-03-04T03:49:23.037Z,5.46
2018-03-04T03:51:54.420Z,5.62
2018-03-04T03:54:40.709Z,5.72
2018-03-04T03:57:14.553Z,5.72
2018-03-04T03:59:46.274Z,5.61
2018-03-04T04:02:20.705Z,5.69
2018-03-04T04:05:01.948Z,5.73
2018-03-04T04:07:32.826Z,5.66
2018-03-04T04:10:04.679Z,5.57
2018-03-04T04:12:41.761Z,5.60
2018-03-04T04:15:18.446Z,5.57
2018-03-04T04:17:48.925Z,5.53
2018-03-04T04:20:19.981Z,5.68
2018-03-04T04:22:56.762Z,5.66
2018-03-04T04:25:27.988Z,5.76
2018-03-04T04:27:58.768Z,5.78
2018-03-04T04:30:30.426Z,5.80
2018-03-04T04:33:01.215Z,5.73
2018-03-04T04:35:32.880Z,5.76
2018-03-04T04:38:04.860Z,5.73
2018-03-04T04:40:36.697Z,5.62
2018-03-04T04:43:08.576Z,5.74
2018-03-04T04:45:41.089Z,5.79
2018-03-04T04:48:12.180Z,5.67
2018-03-04T04:53:45.815Z,5.69
2018-03-04T04:56:17.631Z,5.84
2018-03-04T04:58:48.584Z,5.93
2018-03-04T05:01:28.744Z,6.00
2018-03-04T05:04:27.259Z,5.92
2018-03-04T05:07:22.434Z,5.92
2018-03-04T05:10:00.165Z,5.89
2018-03-04T05:12:31.722Z,5.97
2018-03-04T05:15:05.175Z,6.06
2018-03-04T05:17:36.376Z,6.04
2018-03-04T05:20:08.695Z,6.00
2018-03-04T05:25:20.954Z,6.04
2018-03-04T05:27:51.869Z,6.05
2018-03-04T05:30:24.987Z,6.13
2018-03-04T05:32:56.186Z,6.07
2018-03-04T05:35:27.944Z,5.90
2018-03-04T05:37:59.953Z,6.03
2018-03-04T05:40:31.762Z,5.96
2018-03-04T05:43:04.032Z,6.07
2018-03-04T05:45:35.961Z,5.73
2018-03-04T05:48:10.307Z,5.96
2018-03-04T05:50:44.161Z,6.07
2018-03-04T05:53:16.629Z,6.19
2018-03-04T05:55:47.261Z,5.96
2018-03-04T05:58:19.173Z,6.10
2018-03-04T06:00:52.146Z,5.84
2018-03-04T06:03:27.798Z,6.00
2018-03-04T06:06:00.543Z,5.99
2018-03-04T06:08:31.223Z,6.04
2018-03-04T06:11:02.753Z,6.13
2018-03-04T06:13:36.374Z,6.11
2018-03-04T06:16:08.616Z,5.73
2018-03-04T06:18:41.047Z,5.83
2018-03-04T06:21:25.494Z,5.78
2018-03-04T06:24:05.829Z,6.07
2018-03-04T06:26:38.012Z,6.02
2018-03-04T06:29:10.680Z,6.03
2018-03-04T06:31:44.279Z,6.06
2018-03-04T06:34:30.508Z,6.01
2018-03-04T06:39:57.861Z,6.01
2018-03-04T06:42:30.200Z,6.06
2018-03-04T06:45:05.166Z,6.13
2018-03-04T06:47:36.748Z,6.16
2018-03-04T06:50:16.114Z,6.22
2018-03-04T06:52:47.810Z,6.23
2018-03-04T06:55:30.046Z,6.26
2018-03-04T06:58:01.862Z,6.38
2018-03-04T07:00:34.443Z,6.42
2018-03-04T07:03:06.119Z,6.29
2018-03-04T07:05:37.899Z,6.54
2018-03-04T07:08:24.369Z,6.34
2018-03-04T07:10:56.039Z,6.43
2018-03-04T07:13:28.256Z,6.34
2018-03-04T07:16:02.774Z,6.44
2018-03-04T07:18:34.203Z,6.44
2018-03-04T07:21:08.137Z,6.43
2018-03-04T07:23:41.572Z,6.37
2018-03-04T07:26:19.119Z,6.67
2018-03-04T07:28:55.686Z,6.65
2018-03-04T07:31:28.425Z,6.77
2018-03-04T07:33:59.708Z,6.83
2018-03-04T07:36:31.217Z,6.80
2018-03-04T07:39:02.908Z,6.90
2018-03-04T07:41:33.929Z,7.02
2018-03-04T07:44:06.396Z,7.12
2018-03-04T07:46:42.775Z,7.35
2018-03-04T07:49:15.445Z,7.45
2018-03-04T07:51:49.614Z,7.88
2018-03-04T07:54:22.255Z,8.04
2018-03-04T07:56:54.707Z,8.09
2018-03-04T07:59:27.907Z,7.83
2018-03-04T08:02:03.030Z,7.95
2018-03-04T08:04:34.265Z,7.94
2018-03-04T08:07:05.909Z,7.95
2018-03-04T08:09:37.345Z,8.33
2018-03-04T08:12:10.661Z,8.53
2018-03-04T08:14:44.434Z,8.59
2018-03-04T08:17:28.473Z,8.66
2018-03-04T08:20:34.379Z,8.85
2018-03-04T08:23:06.061Z,8.58
2018-03-04T08:25:37.616Z,8.73
2018-03-04T08:28:20.204Z,9.38
2018-03-04T08:31:00.456Z,9.63
2018-03-04T08:33:31.463Z,9.39
2018-03-04T08:36:02.934Z,9.82
2018-03-04T08:38:34.549Z,9.65
2018-03-04T08:41:05.558Z,9.80
2018-03-04T08:43:37.452Z,9.88
2018-03-04T08:46:10.588Z,10.15
2018-03-04T08:48:42.028Z,10.40
2018-03-04T08:51:14.961Z,10.40
2018-03-04T08:53:56.777Z,10.46
2018-03-04T08:59:30.784Z,10.63
2018-03-04T09:02:03.828Z,10.44
2018-03-04T09:04:35.139Z,10.65
2018-03-04T09:07:06.502Z,10.89
2018-03-04T09:09:37.960Z,10.80
2018-03-04T09:12:09.050Z,11.09
2018-03-04T09:14:40.098Z,10.74
2018-03-04T09:17:12.867Z,10.64
2018-03-04T09:23:01.224Z,11.55
2018-03-04T09:25:39.444Z,11.13
2018-03-04T09:28:19.916Z,11.22
2018-03-04T09:31:01.656Z,11.12
2018-03-04T09:33:34.205Z,10.80
2018-03-04T09:36:06.028Z,10.65
2018-03-04T09:38:37.026Z,10.38
2018-03-04T09:43:40.954Z,10.56
2018-03-04T09:46:12.551Z,10.45
2018-03-04T09:48:44.278Z,10.33
2018-03-04T09:51:17.797Z,10.64
2018-03-04T09:54:17.484Z,10.56
2018-03-04T09:56:53.062Z,10.56
2018-03-04T09:59:29.660Z,10.48
2018-03-04T10:02:06.451Z,11.08
2018-03-04T10:04:41.839Z,11.62
2018-03-04T10:07:13.946Z,12.14
2018-03-04T10:09:45.194Z,12.53
2018-03-04T10:12:15.970Z,13.09
2018-03-04T10:14:46.774Z,12.37
2018-03-04T10:17:18.417Z,13.10
2018-03-04T10:19:49.751Z,13.51
2018-03-04T10:25:06.880Z,14.17
2018-03-04T10:27:38.106Z,13.96
2018-03-04T10:30:18.132Z,13.62
2018-03-04T10:32:57.258Z,14.16
2018-03-04T10:35:32.041Z,13.20
2018-03-04T10:38:03.868Z,12.72
2018-03-04T10:40:34.878Z,13.70
2018-03-04T10:43:06.265Z,15.31
2018-03-04T10:45:39.124Z,16.30
2018-03-04T10:48:11.277Z,17.11
2018-03-04T10:50:45.066Z,15.69
2018-03-04T10:53:16.848Z,15.69
2018-03-04T10:58:25.170Z,15.73
2018-03-04T11:01:07.435Z,16.48
2018-03-04T11:03:41.204Z,14.78
2018-03-04T11:06:19.232Z,14.50
2018-03-04T11:09:04.444Z,14.54
2018-03-04T11:11:39.415Z,15.65
2018-03-04T11:16:41.730Z,17.26
2018-03-04T11:19:12.976Z,17.31
2018-03-04T11:21:45.147Z,17.04
2018-03-04T11:24:19.647Z,16.88
2018-03-04T11:26:51.545Z,17.70
2018-03-04T11:29:22.643Z,17.27
2018-03-04T11:31:55.012Z,17.88
2018-03-04T11:34:48.986Z,16.93
2018-03-04T11:37:22.027Z,17.98
2018-03-04T11:39:54.261Z,17.86
2018-03-04T11:42:28.757Z,18.14
2018-03-04T11:45:10.335Z,18.51
2018-03-04T11:48:03.619Z,17.90
2018-03-04T11:50:39.800Z,18.44
2018-03-04T11:53:11.636Z,18.80
2018-03-04T11:55:49.645Z,18.74
2018-03-04T11:58:23.899Z,18.52
2018-03-04T12:00:58.023Z,18.96
2018-03-04T12:03:33.479Z,19.37
2018-03-04T12:06:07.422Z,18.79
2018-03-04T12:08:40.454Z,18.71
2018-03-04T12:11:19.408Z,18.81
2018-03-04T12:14:10.378Z,18.96
2018-03-04T12:16:47.044Z,18.24
2018-03-04T12:19:19.053Z,18.48
2018-03-04T12:21:50.651Z,18.59
2018-03-04T12:24:23.284Z,17.91
2018-03-04T12:29:41.491Z,17.36
2018-03-04T12:32:18.623Z,17.70
2018-03-04T12:34:53.348Z,18.15
2018-03-04T12:37:27.098Z,17.65
2018-03-04T12:40:21.001Z,17.48
2018-03-04T12:42:53.377Z,17.56
2018-03-04T12:45:25.333Z,17.84
2018-03-04T12:47:56.562Z,18.19
2018-03-04T12:50:28.940Z,16.82
2018-03-04T12:53:34.216Z,17.70
2018-03-04T12:56:07.638Z,17.93
2018-03-04T12:58:41.342Z,18.40
2018-03-04T13:01:15.461Z,18.07
2018-03-04T13:03:48.401Z,18.38
2018-03-04T13:06:20.430Z,17.74
2018-03-04T13:08:52.148Z,18.47
2018-03-04T13:11:25.036Z,18.55
2018-03-04T13:14:00.017Z,18.53
2018-03-04T13:16:34.307Z,18.64
2018-03-04T13:19:17.402Z,18.91
2018-03-04T13:21:50.198Z,18.87
2018-03-04T13:24:23.786Z,19.02
2018-03-04T13:26:55.516Z,18.38
2018-03-04T13:29:27.072Z,18.71
2018-03-04T13:31:59.594Z,17.65
2018-03-04T13:34:39.594Z,18.02
2018-03-04T13:37:11.728Z,17.85
2018-03-04T13:39:47.487Z,17.54
2018-03-04T13:42:35.654Z,17.12
2018-03-04T13:45:31.260Z,16.61
2018-03-04T13:48:04.591Z,16.95
2018-03-04T13:50:39.535Z,16.83
2018-03-04T13:53:12.814Z,16.98
2018-03-04T13:55:44.935Z,16.87
2018-03-04T13:58:20.018Z,16.86
2018-03-04T14:00:52.169Z,16.65
2018-03-04T14:03:23.951Z,16.40
2018-03-04T14:05:56.036Z,16.61
2018-03-04T14:08:29.060Z,16.04
2018-03-04T14:11:01.277Z,16.25
2018-03-04T14:13:33.103Z,16.37
2018-03-04T14:16:09.910Z,16.39
2018-03-04T14:18:44.123Z,15.95
2018-03-04T14:21:17.718Z,15.83
2018-03-04T14:23:55.468Z,15.70
2018-03-04T14:26:38.027Z,15.68
2018-03-04T14:29:10.232Z,15.72
2018-03-04T14:31:43.420Z,15.59
2018-03-04T14:34:24.138Z,15.63
2018-03-04T14:36:56.390Z,15.65
2018-03-04T14:39:36.304Z,15.86
2018-03-04T14:42:08.181Z,15.75
2018-03-04T14:46:00.230Z,15.51
2018-03-04T14:48:36.029Z,15.01
2018-03-04T14:51:07.011Z,15.32
2018-03-04T14:56:51.493Z,15.24
2018-03-04T14:59:24.313Z,15.09
2018-03-04T15:01:57.320Z,15.17
2018-03-04T15:04:28.349Z,15.32
2018-03-04T15:06:59.528Z,15.18
2018-03-04T15:09:32.787Z,15.02
2018-03-04T15:12:04.989Z,15.01
2018-03-04T15:14:36.232Z,14.79
2018-03-04T15:17:08.934Z,14.38
2018-03-04T15:19:51.176Z,14.84
2018-03-04T15:22:28.500Z,14.83
2018-03-04T15:25:06.558Z,14.69
2018-03-04T15:27:39.065Z,14.74
2018-03-04T15:39:07.304Z,14.21
2018-03-04T15:41:44.091Z,14.13
2018-03-04T15:44:15.747Z,14.21
2018-03-04T15:46:50.145Z,14.29
2018-03-04T15:52:53.442Z,14.33
2018-03-04T15:55:32.496Z,14.37
2018-03-04T15:58:05.186Z,14.36
2018-03-04T16:00:42.829Z,14.25
2018-03-04T16:03:16.912Z,14.38
2018-03-04T16:05:48.858Z,14.33
2018-03-04T16:08:22.658Z,14.20
2018-03-04T16:11:02.133Z,14.15
2018-03-04T16:16:23.105Z,13.93
2018-03-04T16:19:01.593Z,13.91
2018-03-04T16:21:40.132Z,13.92
2018-03-04T16:24:15.843Z,13.86
2018-03-04T16:26:48.378Z,13.78
2018-03-04T16:29:20.744Z,13.38
2018-03-04T16:31:55.980Z,13.49
2018-03-04T16:37:45.528Z,13.35
2018-03-04T16:40:24.735Z,13.28
2018-03-04T16:43:02.973Z,13.25
2018-03-04T16:45:45.282Z,13.22
2018-03-04T16:48:19.428Z,13.19
2018-03-04T16:50:54.247Z,13.09
2018-03-04T16:53:28.746Z,12.92
2018-03-04T16:56:03.258Z,13.07
2018-03-04T16:58:35.908Z,12.88
2018-03-04T17:01:08.262Z,13.04
2018-03-04T17:03:41.489Z,13.07
2018-03-04T17:06:16.886Z,13.06
2018-03-04T17:11:51.774Z,12.94
2018-03-04T17:14:28.388Z,13.04
2018-03-04T17:17:05.217Z,13.01
2018-03-04T17:19:41.285Z,12.80
2018-03-04T17:22:15.304Z,13.00
2018-03-04T17:24:49.152Z,12.93
2018-03-04T17:27:24.056Z,12.97
2018-03-04T17:30:09.032Z,13.04
2018-03-04T17:32:42.366Z,12.85
2018-03-04T17:35:19.958Z,12.73
2018-03-04T17:37:54.206Z,12.46
2018-03-04T17:40:27.751Z,12.53
2018-03-04T17:42:59.872Z,12.46
2018-03-04T17:45:32.566Z,12.29
2018-03-04T17:48:19.180Z,12.25
2018-03-04T17:50:51.691Z,12.31
2018-03-04T17:53:26.113Z,12.27
2018-03-04T17:56:01.564Z,12.26
2018-03-04T17:58:34.386Z,12.24
2018-03-04T18:01:08.974Z,12.19
2018-03-04T18:03:43.259Z,11.94
2018-03-04T18:06:20.069Z,12.24
2018-03-04T18:08:59.255Z,12.32
2018-03-04T18:11:37.209Z,12.32
2018-03-04T18:14:10.255Z,12.31
2018-03-04T18:16:45.014Z,12.30
2018-03-04T18:19:19.231Z,12.19
2018-03-04T18:21:56.037Z,12.23
2018-03-04T18:24:33.108Z,12.33
2018-03-04T18:27:06.578Z,12.17
2018-03-04T18:29:47.788Z,12.27
2018-03-04T18:32:26.450Z,12.06
2018-03-04T18:34:59.641Z,12.16
2018-03-04T18:37:35.318Z,12.00
2018-03-04T18:40:11.007Z,12.21
2018-03-04T18:42:50.406Z,11.92
2018-03-04T18:45:24.605Z,11.97
2018-03-04T18:48:26.760Z,11.86
2018-03-04T18:51:04.819Z,11.66
2018-03-04T18:53:45.240Z,11.60
2018-03-04T18:56:21.379Z,11.65
2018-03-04T18:58:59.135Z,11.65
2018-03-04T19:01:32.967Z,11.50
2018-03-04T19:04:08.328Z,11.42
2018-03-04T19:06:45.930Z,11.40
2018-03-04T19:09:21.171Z,11.26
2018-03-04T19:11:54.841Z,11.24
2018-03-04T19:14:26.995Z,11.24
2018-03-04T19:17:00.718Z,11.27
2018-03-04T19:19:33.474Z,11.13
2018-03-04T19:22:07.321Z,10.95
2018-03-04T19:24:41.198Z,10.95
2018-03-04T19:27:15.291Z,10.86
2018-03-04T19:29:49.121Z,10.90
2018-03-04T19:32:27.777Z,10.88
2018-03-04T19:35:02.533Z,10.87
2018-03-04T19:37:37.866Z,10.86
2018-03-04T19:40:13.779Z,10.87
2018-03-04T19:42:50.573Z,10.89
2018-03-04T19:45:27.721Z,10.33
2018-03-04T19:48:03.957Z,10.82
2018-03-04T19:50:40.306Z,10.78
2018-03-04T19:53:15.853Z,10.89
2018-03-04T19:55:49.727Z,10.83
2018-03-04T19:58:25.163Z,10.82
2018-03-04T20:03:44.428Z,10.64
2018-03-04T20:06:19.303Z,10.58
2018-03-04T20:08:55.188Z,10.86
2018-03-04T20:11:30.257Z,10.94
2018-03-04T20:17:16.123Z,10.83
2018-03-04T20:19:57.645Z,10.73
2018-03-04T20:22:36.597Z,10.87
2018-03-04T20:25:15.471Z,10.90
2018-03-04T20:27:50.560Z,10.66
2018-03-04T20:30:24.469Z,10.78
2018-03-04T20:33:02.857Z,10.84
2018-03-04T20:35:38.760Z,11.05
2018-03-04T20:38:16.034Z,10.91
2018-03-04T20:40:53.142Z,11.13
2018-03-04T20:43:27.240Z,10.95
2018-03-04T20:46:01.794Z,10.99
2018-03-04T20:48:38.758Z,10.99
2018-03-04T20:51:18.198Z,11.06
2018-03-04T20:53:52.062Z,10.67
2018-03-04T20:56:25.493Z,10.99
2018-03-04T20:59:00.014Z,10.86
2018-03-04T21:01:32.820Z,11.08
2018-03-04T21:04:05.207Z,11.07
2018-03-04T21:06:38.423Z,11.06
2018-03-04T21:09:11.840Z,11.03
2018-03-04T21:11:44.562Z,11.10
2018-03-04T21:14:16.837Z,11.03
2018-03-04T21:16:48.857Z,11.01
2018-03-04T21:19:20.692Z,11.10
2018-03-04T21:21:59.261Z,11.15
2018-03-04T21:24:37.794Z,10.92
2018-03-04T21:27:12.208Z,10.54
2018-03-04T21:29:47.290Z,10.53
2018-03-04T21:32:30.511Z,10.49
2018-03-04T21:35:04.646Z,10.54
2018-03-04T21:37:37.446Z,10.68
2018-03-04T21:40:10.929Z,10.16
2018-03-04T21:42:43.290Z,10.13
2018-03-04T21:45:20.200Z,10.00
2018-03-04T21:47:53.675Z,10.13
2018-03-04T21:50:27.668Z,10.67
2018-03-04T21:53:00.374Z,10.12
2018-03-04T21:55:32.326Z,10.44
2018-03-04T21:58:03.821Z,10.68
2018-03-04T22:00:36.997Z,10.72
2018-03-04T22:03:10.062Z,10.54
2018-03-04T22:05:41.505Z,10.53
2018-03-04T22:08:14.174Z,10.64
2018-03-04T22:10:45.866Z,11.00
2018-03-04T22:13:18.066Z,10.77
2018-03-04T22:15:50.704Z,10.44
2018-03-04T22:18:23.865Z,10.40
2018-03-04T22:20:56.167Z,10.58
2018-03-04T22:23:28.536Z,10.77
2018-03-04T22:26:03.033Z,10.96
2018-03-04T22:28:36.806Z,10.89
2018-03-04T22:31:10.649Z,10.95
2018-03-04T22:33:43.818Z,10.87
2018-03-04T22:36:16.933Z,10.79
2018-03-04T22:38:49.258Z,10.90
2018-03-04T22:41:21.594Z,11.03
2018-03-04T22:43:53.557Z,11.14
2018-03-04T22:46:27.341Z,11.06
2018-03-04T22:48:59.160Z,11.18
2018-03-04T22:51:31.360Z,11.34
2018-03-04T22:54:03.950Z,11.42
2018-03-04T22:56:36.530Z,11.46
2018-03-04T22:59:07.668Z,11.42
2018-03-04T23:01:40.329Z,11.35
2018-03-04T23:04:11.816Z,11.45
2018-03-04T23:06:43.389Z,11.51
2018-03-04T23:09:15.541Z,11.52
2018-03-04T23:11:47.157Z,11.46
2018-03-04T23:14:19.597Z,11.46
2018-03-04T23:16:54.838Z,11.47
2018-03-04T23:19:27.709Z,11.45
2018-03-04T23:21:59.481Z,11.34
2018-03-04T23:24:31.161Z,11.41
2018-03-04T23:27:03.091Z,11.33
2018-03-04T23:29:36.520Z,11.17
2018-03-04T23:32:07.816Z,11.31
2018-03-04T23:34:40.022Z,11.31
2018-03-04T23:39:54.780Z,11.03
2018-03-04T23:42:28.327Z,11.13
2018-03-04T23:45:03.605Z,11.04
2018-03-04T23:47:36.408Z,11.22
2018-03-04T23:50:08.282Z,11.25
2018-03-04T23:52:40.496Z,11.31
2018-03-04T23:55:12.987Z,11.22
2018-03-04T23:57:45.561Z,11.34
